sensor_id;sensor_type;location;lat;lon;timestamp;P1;durP1;ratioP1;P2;durP2;ratioP2
43919;SDS011;29578;51.946;5.874;2022-11-20T00:01:17;1.00;;;0.50;;
43919;SDS011;29578;51.946;5.874;2022-11-20T00:03:45;1.60;;;0.70;;
43919;SDS011;29578;51.946;5.874;2022-11-20T00:06:12;0.95;;;0.60;;
43919;SDS011;29578;51.946;5.874;2022-11-20T00:08:40;0.95;;;0.65;;
43919;SDS011;29578;51.946;5.874;2022-11-20T00:11:09;0.68;;;0.50;;
43919;SDS011;29578;51.946;5.874;2022-11-20T00:13:38;1.45;;;0.70;;
43919;SDS011;29578;51.946;5.874;2022-11-20T00:16:05;0.93;;;0.60;;
43919;SDS011;29578;51.946;5.874;2022-11-20T00:18:32;1.42;;;0.65;;
43919;SDS011;29578;51.946;5.874;2022-11-20T00:21:00;1.73;;;0.70;;
43919;SDS011;29578;51.946;5.874;2022-11-20T00:25:56;0.75;;;0.50;;
43919;SDS011;29578;51.946;5.874;2022-11-20T00:28:26;0.60;;;0.50;;
43919;SDS011;29578;51.946;5.874;2022-11-20T00:30:51;1.15;;;0.60;;
43919;SDS011;29578;51.946;5.874;2022-11-20T00:33:17;0.98;;;0.60;;
43919;SDS011;29578;51.946;5.874;2022-11-20T00:35:43;1.55;;;0.80;;
43919;SDS011;29578;51.946;5.874;2022-11-20T00:38:08;1.65;;;0.82;;
43919;SDS011;29578;51.946;5.874;2022-11-20T00:40:34;0.77;;;0.57;;
43919;SDS011;29578;51.946;5.874;2022-11-20T00:43:00;1.73;;;0.70;;
43919;SDS011;29578;51.946;5.874;2022-11-20T00:45:26;1.30;;;0.80;;
43919;SDS011;29578;51.946;5.874;2022-11-20T00:47:52;0.82;;;0.55;;
43919;SDS011;29578;51.946;5.874;2022-11-20T00:50:18;1.00;;;0.50;;
43919;SDS011;29578;51.946;5.874;2022-11-20T00:52:43;1.35;;;0.50;;
43919;SDS011;29578;51.946;5.874;2022-11-20T00:55:09;0.82;;;0.43;;
43919;SDS011;29578;51.946;5.874;2022-11-20T00:57:35;1.52;;;0.60;;
43919;SDS011;29578;51.946;5.874;2022-11-20T01:00:01;1.10;;;0.60;;
43919;SDS011;29578;51.946;5.874;2022-11-20T01:02:27;1.70;;;0.85;;
43919;SDS011;29578;51.946;5.874;2022-11-20T01:04:52;1.05;;;0.50;;
43919;SDS011;29578;51.946;5.874;2022-11-20T01:07:18;1.13;;;0.70;;
43919;SDS011;29578;51.946;5.874;2022-11-20T01:09:44;1.10;;;0.70;;
43919;SDS011;29578;51.946;5.874;2022-11-20T01:12:10;1.08;;;0.55;;
43919;SDS011;29578;51.946;5.874;2022-11-20T01:14:36;1.30;;;0.60;;
43919;SDS011;29578;51.946;5.874;2022-11-20T01:17:02;1.08;;;0.70;;
43919;SDS011;29578;51.946;5.874;2022-11-20T01:19:27;0.65;;;0.50;;
43919;SDS011;29578;51.946;5.874;2022-11-20T01:21:53;0.73;;;0.35;;
43919;SDS011;29578;51.946;5.874;2022-11-20T01:24:20;1.00;;;0.57;;
43919;SDS011;29578;51.946;5.874;2022-11-20T01:26:48;0.82;;;0.60;;
43919;SDS011;29578;51.946;5.874;2022-11-20T01:29:16;1.25;;;0.57;;
43919;SDS011;29578;51.946;5.874;2022-11-20T01:31:46;0.90;;;0.50;;
43919;SDS011;29578;51.946;5.874;2022-11-20T01:34:13;1.90;;;0.70;;
43919;SDS011;29578;51.946;5.874;2022-11-20T01:36:41;0.73;;;0.50;;
43919;SDS011;29578;51.946;5.874;2022-11-20T01:39:13;1.70;;;0.88;;
43919;SDS011;29578;51.946;5.874;2022-11-20T01:41:40;0.80;;;0.55;;
43919;SDS011;29578;51.946;5.874;2022-11-20T01:44:19;1.08;;;0.65;;
43919;SDS011;29578;51.946;5.874;2022-11-20T01:47:05;1.27;;;0.60;;
43919;SDS011;29578;51.946;5.874;2022-11-20T01:49:37;1.10;;;0.57;;
43919;SDS011;29578;51.946;5.874;2022-11-20T01:52:11;1.27;;;0.70;;
43919;SDS011;29578;51.946;5.874;2022-11-20T01:54:44;0.98;;;0.50;;
43919;SDS011;29578;51.946;5.874;2022-11-20T01:57:16;0.77;;;0.50;;
43919;SDS011;29578;51.946;5.874;2022-11-20T01:59:44;1.15;;;0.82;;
43919;SDS011;29578;51.946;5.874;2022-11-20T02:02:17;1.02;;;0.70;;
43919;SDS011;29578;51.946;5.874;2022-11-20T02:04:43;1.38;;;0.75;;
43919;SDS011;29578;51.946;5.874;2022-11-20T02:07:09;1.05;;;0.60;;
43919;SDS011;29578;51.946;5.874;2022-11-20T02:09:36;2.55;;;0.60;;
43919;SDS011;29578;51.946;5.874;2022-11-20T02:12:02;1.30;;;0.70;;
43919;SDS011;29578;51.946;5.874;2022-11-20T02:14:29;0.57;;;0.55;;
43919;SDS011;29578;51.946;5.874;2022-11-20T02:16:55;1.63;;;0.95;;
43919;SDS011;29578;51.946;5.874;2022-11-20T02:19:30;1.15;;;0.63;;
43919;SDS011;29578;51.946;5.874;2022-11-20T02:24:36;1.48;;;0.68;;
43919;SDS011;29578;51.946;5.874;2022-11-20T02:27:03;1.48;;;0.77;;
43919;SDS011;29578;51.946;5.874;2022-11-20T02:29:37;1.80;;;0.70;;
43919;SDS011;29578;51.946;5.874;2022-11-20T02:32:25;1.27;;;0.50;;
43919;SDS011;29578;51.946;5.874;2022-11-20T02:34:54;1.38;;;0.60;;
43919;SDS011;29578;51.946;5.874;2022-11-20T02:37:20;1.20;;;0.73;;
43919;SDS011;29578;51.946;5.874;2022-11-20T02:39:47;1.58;;;0.70;;
43919;SDS011;29578;51.946;5.874;2022-11-20T02:42:14;1.05;;;0.50;;
43919;SDS011;29578;51.946;5.874;2022-11-20T02:44:40;1.38;;;0.52;;
43919;SDS011;29578;51.946;5.874;2022-11-20T02:47:06;1.75;;;0.73;;
43919;SDS011;29578;51.946;5.874;2022-11-20T02:49:32;0.85;;;0.63;;
43919;SDS011;29578;51.946;5.874;2022-11-20T02:51:58;2.10;;;0.70;;
43919;SDS011;29578;51.946;5.874;2022-11-20T02:54:24;1.85;;;0.90;;
43919;SDS011;29578;51.946;5.874;2022-11-20T02:56:53;1.23;;;0.60;;
43919;SDS011;29578;51.946;5.874;2022-11-20T02:59:19;0.80;;;0.60;;
43919;SDS011;29578;51.946;5.874;2022-11-20T03:01:45;0.90;;;0.55;;
43919;SDS011;29578;51.946;5.874;2022-11-20T03:04:11;1.45;;;0.70;;
43919;SDS011;29578;51.946;5.874;2022-11-20T03:06:37;1.60;;;0.70;;
43919;SDS011;29578;51.946;5.874;2022-11-20T03:09:03;0.98;;;0.60;;
43919;SDS011;29578;51.946;5.874;2022-11-20T03:11:29;1.17;;;0.70;;
43919;SDS011;29578;51.946;5.874;2022-11-20T03:14:01;0.73;;;0.52;;
43919;SDS011;29578;51.946;5.874;2022-11-20T03:16:28;0.98;;;0.60;;
43919;SDS011;29578;51.946;5.874;2022-11-20T03:18:55;0.90;;;0.55;;
43919;SDS011;29578;51.946;5.874;2022-11-20T03:21:22;1.52;;;0.80;;
43919;SDS011;29578;51.946;5.874;2022-11-20T03:23:48;1.20;;;0.60;;
43919;SDS011;29578;51.946;5.874;2022-11-20T03:26:15;1.05;;;0.60;;
43919;SDS011;29578;51.946;5.874;2022-11-20T03:28:52;0.85;;;0.63;;
43919;SDS011;29578;51.946;5.874;2022-11-20T03:31:20;0.88;;;0.63;;
43919;SDS011;29578;51.946;5.874;2022-11-20T03:33:49;1.17;;;0.70;;
43919;SDS011;29578;51.946;5.874;2022-11-20T03:36:16;1.08;;;0.50;;
43919;SDS011;29578;51.946;5.874;2022-11-20T03:38:43;1.38;;;0.65;;
43919;SDS011;29578;51.946;5.874;2022-11-20T03:41:11;0.77;;;0.52;;
43919;SDS011;29578;51.946;5.874;2022-11-20T03:43:39;0.88;;;0.50;;
43919;SDS011;29578;51.946;5.874;2022-11-20T03:46:06;0.90;;;0.60;;
43919;SDS011;29578;51.946;5.874;2022-11-20T03:48:33;1.73;;;0.80;;
43919;SDS011;29578;51.946;5.874;2022-11-20T03:51:07;1.45;;;0.60;;
43919;SDS011;29578;51.946;5.874;2022-11-20T03:53:34;0.90;;;0.50;;
43919;SDS011;29578;51.946;5.874;2022-11-20T08:00:24;1.05;;;0.50;;
43919;SDS011;29578;51.946;5.874;2022-11-20T08:06:13;1.30;;;0.50;;
43919;SDS011;29578;51.946;5.874;2022-11-20T08:09:19;1.00;;;0.45;;
43919;SDS011;29578;51.946;5.874;2022-11-20T08:15:47;1.45;;;0.57;;
43919;SDS011;29578;51.946;5.874;2022-11-20T08:18:16;1.20;;;0.55;;
43919;SDS011;29578;51.946;5.874;2022-11-20T08:20:42;2.10;;;0.60;;
43919;SDS011;29578;51.946;5.874;2022-11-20T08:23:08;1.00;;;0.57;;
43919;SDS011;29578;51.946;5.874;2022-11-20T08:25:35;1.17;;;0.60;;
43919;SDS011;29578;51.946;5.874;2022-11-20T08:28:03;1.45;;;0.75;;
43919;SDS011;29578;51.946;5.874;2022-11-20T08:30:31;0.75;;;0.50;;
43919;SDS011;29578;51.946;5.874;2022-11-20T08:33:01;0.93;;;0.52;;
43919;SDS011;29578;51.946;5.874;2022-11-20T08:35:33;0.68;;;0.50;;
43919;SDS011;29578;51.946;5.874;2022-11-20T08:38:00;1.13;;;0.68;;
43919;SDS011;29578;51.946;5.874;2022-11-20T08:40:27;0.90;;;0.50;;
43919;SDS011;29578;51.946;5.874;2022-11-20T08:42:53;0.82;;;0.60;;
43919;SDS011;29578;51.946;5.874;2022-11-20T08:45:18;1.13;;;0.60;;
43919;SDS011;29578;51.946;5.874;2022-11-20T08:47:44;1.30;;;0.60;;
43919;SDS011;29578;51.946;5.874;2022-11-20T08:50:11;0.52;;;0.43;;
43919;SDS011;29578;51.946;5.874;2022-11-20T08:52:38;1.02;;;0.60;;
43919;SDS011;29578;51.946;5.874;2022-11-20T08:55:04;1.27;;;0.50;;
43919;SDS011;29578;51.946;5.874;2022-11-20T08:57:32;2.47;;;0.70;;
43919;SDS011;29578;51.946;5.874;2022-11-20T08:59:58;0.90;;;0.50;;
43919;SDS011;29578;51.946;5.874;2022-11-20T09:02:24;1.27;;;0.70;;
43919;SDS011;29578;51.946;5.874;2022-11-20T09:04:50;1.77;;;0.63;;
43919;SDS011;29578;51.946;5.874;2022-11-20T09:07:16;1.05;;;0.70;;
43919;SDS011;29578;51.946;5.874;2022-11-20T09:09:41;1.70;;;0.77;;
43919;SDS011;29578;51.946;5.874;2022-11-20T09:12:07;0.98;;;0.50;;
43919;SDS011;29578;51.946;5.874;2022-11-20T09:14:32;1.17;;;0.65;;
43919;SDS011;29578;51.946;5.874;2022-11-20T09:16:58;0.95;;;0.52;;
43919;SDS011;29578;51.946;5.874;2022-11-20T09:19:24;0.80;;;0.60;;
43919;SDS011;29578;51.946;5.874;2022-11-20T09:21:50;0.82;;;0.63;;
43919;SDS011;29578;51.946;5.874;2022-11-20T09:24:17;0.85;;;0.63;;
43919;SDS011;29578;51.946;5.874;2022-11-20T09:26:43;1.10;;;0.70;;
43919;SDS011;29578;51.946;5.874;2022-11-20T09:29:09;1.38;;;0.73;;
43919;SDS011;29578;51.946;5.874;2022-11-20T09:31:34;0.63;;;0.57;;
43919;SDS011;29578;51.946;5.874;2022-11-20T09:34:00;1.27;;;0.80;;
43919;SDS011;29578;51.946;5.874;2022-11-20T09:36:26;1.70;;;0.77;;
43919;SDS011;29578;51.946;5.874;2022-11-20T09:38:51;1.30;;;0.60;;
43919;SDS011;29578;51.946;5.874;2022-11-20T09:41:29;0.77;;;0.63;;
43919;SDS011;29578;51.946;5.874;2022-11-20T09:44:24;0.90;;;0.57;;
43919;SDS011;29578;51.946;5.874;2022-11-20T09:47:06;2.15;;;0.90;;
43919;SDS011;29578;51.946;5.874;2022-11-20T09:49:57;1.20;;;0.80;;
43919;SDS011;29578;51.946;5.874;2022-11-20T09:55:24;1.23;;;0.70;;
43919;SDS011;29578;51.946;5.874;2022-11-20T09:57:52;1.38;;;0.70;;
43919;SDS011;29578;51.946;5.874;2022-11-20T10:00:19;2.08;;;1.02;;
43919;SDS011;29578;51.946;5.874;2022-11-20T10:02:48;1.27;;;0.80;;
43919;SDS011;29578;51.946;5.874;2022-11-20T10:05:30;1.67;;;0.88;;
43919;SDS011;29578;51.946;5.874;2022-11-20T10:08:11;1.13;;;0.77;;
43919;SDS011;29578;51.946;5.874;2022-11-20T10:10:53;2.03;;;1.10;;
43919;SDS011;29578;51.946;5.874;2022-11-20T10:13:48;2.20;;;1.08;;
43919;SDS011;29578;51.946;5.874;2022-11-20T10:16:46;1.63;;;1.00;;
43919;SDS011;29578;51.946;5.874;2022-11-20T10:19:30;1.15;;;0.70;;
43919;SDS011;29578;51.946;5.874;2022-11-20T10:22:22;1.30;;;0.80;;
43919;SDS011;29578;51.946;5.874;2022-11-20T10:25:33;1.50;;;0.80;;
43919;SDS011;29578;51.946;5.874;2022-11-20T10:27:58;1.30;;;0.80;;
43919;SDS011;29578;51.946;5.874;2022-11-20T10:30:48;1.50;;;0.80;;
43919;SDS011;29578;51.946;5.874;2022-11-20T10:33:22;1.67;;;0.80;;
43919;SDS011;29578;51.946;5.874;2022-11-20T10:35:52;1.45;;;0.90;;
43919;SDS011;29578;51.946;5.874;2022-11-20T10:38:39;1.60;;;0.93;;
43919;SDS011;29578;51.946;5.874;2022-11-20T10:41:16;1.45;;;0.90;;
43919;SDS011;29578;51.946;5.874;2022-11-20T10:44:02;1.48;;;0.88;;
43919;SDS011;29578;51.946;5.874;2022-11-20T10:46:38;1.73;;;1.00;;
43919;SDS011;29578;51.946;5.874;2022-11-20T10:49:11;2.05;;;1.20;;
43919;SDS011;29578;51.946;5.874;2022-11-20T10:51:46;1.52;;;1.00;;
43919;SDS011;29578;51.946;5.874;2022-11-20T10:54:29;1.58;;;0.88;;
43919;SDS011;29578;51.946;5.874;2022-11-20T10:57:08;1.60;;;0.88;;
43919;SDS011;29578;51.946;5.874;2022-11-20T11:05:13;1.13;;;0.87;;
43919;SDS011;29578;51.946;5.874;2022-11-20T11:07:50;2.15;;;1.00;;
43919;SDS011;29578;51.946;5.874;2022-11-20T11:10:19;2.50;;;1.30;;
43919;SDS011;29578;51.946;5.874;2022-11-20T11:12:49;1.25;;;1.15;;
43919;SDS011;29578;51.946;5.874;2022-11-20T11:15:24;2.75;;;1.27;;
43919;SDS011;29578;51.946;5.874;2022-11-20T11:17:52;2.10;;;1.00;;
43919;SDS011;29578;51.946;5.874;2022-11-20T11:20:19;1.75;;;1.20;;
43919;SDS011;29578;51.946;5.874;2022-11-20T11:22:50;1.70;;;1.10;;
43919;SDS011;29578;51.946;5.874;2022-11-20T11:25:23;2.13;;;1.05;;
43919;SDS011;29578;51.946;5.874;2022-11-20T11:27:53;2.53;;;1.30;;
43919;SDS011;29578;51.946;5.874;2022-11-20T11:30:21;1.38;;;1.00;;
43919;SDS011;29578;51.946;5.874;2022-11-20T11:32:48;1.48;;;0.95;;
43919;SDS011;29578;51.946;5.874;2022-11-20T11:35:22;2.28;;;1.27;;
43919;SDS011;29578;51.946;5.874;2022-11-20T11:37:49;2.75;;;1.52;;
43919;SDS011;29578;51.946;5.874;2022-11-20T11:40:17;2.83;;;1.52;;
43919;SDS011;29578;51.946;5.874;2022-11-20T11:42:44;2.65;;;1.48;;
43919;SDS011;29578;51.946;5.874;2022-11-20T11:45:16;2.55;;;1.40;;
43919;SDS011;29578;51.946;5.874;2022-11-20T11:47:45;2.55;;;1.48;;
43919;SDS011;29578;51.946;5.874;2022-11-20T11:50:15;2.47;;;1.40;;
43919;SDS011;29578;51.946;5.874;2022-11-20T11:53:28;2.08;;;1.15;;
43919;SDS011;29578;51.946;5.874;2022-11-20T11:55:40;1.95;;;1.35;;
43919;SDS011;29578;51.946;5.874;2022-11-20T11:58:16;2.13;;;1.20;;
43919;SDS011;29578;51.946;5.874;2022-11-20T12:01:14;1.95;;;1.17;;
43919;SDS011;29578;51.946;5.874;2022-11-20T12:09:38;1.88;;;1.02;;
43919;SDS011;29578;51.946;5.874;2022-11-20T12:12:19;2.22;;;1.17;;
43919;SDS011;29578;51.946;5.874;2022-11-20T12:14:49;2.30;;;1.20;;
43919;SDS011;29578;51.946;5.874;2022-11-20T12:17:19;2.83;;;1.25;;
43919;SDS011;29578;51.946;5.874;2022-11-20T12:19:44;2.40;;;1.13;;
43919;SDS011;29578;51.946;5.874;2022-11-20T12:22:18;2.13;;;1.08;;
43919;SDS011;29578;51.946;5.874;2022-11-20T12:25:16;1.60;;;1.20;;
43919;SDS011;29578;51.946;5.874;2022-11-20T12:27:49;2.63;;;1.55;;
43919;SDS011;29578;51.946;5.874;2022-11-20T12:30:28;3.38;;;1.40;;
43919;SDS011;29578;51.946;5.874;2022-11-20T12:33:04;2.10;;;1.20;;
43919;SDS011;29578;51.946;5.874;2022-11-20T12:36:07;2.20;;;1.45;;
43919;SDS011;29578;51.946;5.874;2022-11-20T12:41:46;2.33;;;1.30;;
43919;SDS011;29578;51.946;5.874;2022-11-20T12:44:57;2.30;;;1.40;;
43919;SDS011;29578;51.946;5.874;2022-11-20T12:51:05;1.83;;;1.20;;
43919;SDS011;29578;51.946;5.874;2022-11-20T12:53:39;2.75;;;1.63;;
43919;SDS011;29578;51.946;5.874;2022-11-20T12:59:46;2.22;;;1.15;;
43919;SDS011;29578;51.946;5.874;2022-11-20T13:02:29;1.88;;;1.10;;
43919;SDS011;29578;51.946;5.874;2022-11-20T13:05:28;2.45;;;1.50;;
43919;SDS011;29578;51.946;5.874;2022-11-20T13:08:18;2.28;;;1.20;;
43919;SDS011;29578;51.946;5.874;2022-11-20T13:10:51;1.40;;;0.80;;
43919;SDS011;29578;51.946;5.874;2022-11-20T13:13:35;2.35;;;1.42;;
43919;SDS011;29578;51.946;5.874;2022-11-20T13:19:25;1.55;;;1.10;;
43919;SDS011;29578;51.946;5.874;2022-11-20T13:21:53;2.65;;;1.65;;
43919;SDS011;29578;51.946;5.874;2022-11-20T13:24:28;3.20;;;1.60;;
43919;SDS011;29578;51.946;5.874;2022-11-20T13:32:47;3.63;;;1.60;;
43919;SDS011;29578;51.946;5.874;2022-11-20T13:35:31;2.40;;;1.48;;
43919;SDS011;29578;51.946;5.874;2022-11-20T13:38:00;2.67;;;1.42;;
43919;SDS011;29578;51.946;5.874;2022-11-20T13:40:29;2.17;;;1.30;;
43919;SDS011;29578;51.946;5.874;2022-11-20T13:42:56;3.00;;;1.55;;
43919;SDS011;29578;51.946;5.874;2022-11-20T13:45:35;2.00;;;1.10;;
43919;SDS011;29578;51.946;5.874;2022-11-20T13:48:02;4.15;;;1.85;;
43919;SDS011;29578;51.946;5.874;2022-11-20T13:50:46;4.10;;;1.70;;
43919;SDS011;29578;51.946;5.874;2022-11-20T13:56:11;3.70;;;1.70;;
43919;SDS011;29578;51.946;5.874;2022-11-20T14:01:37;2.95;;;1.65;;
43919;SDS011;29578;51.946;5.874;2022-11-20T14:04:06;4.15;;;2.00;;
43919;SDS011;29578;51.946;5.874;2022-11-20T14:06:39;2.65;;;1.30;;
43919;SDS011;29578;51.946;5.874;2022-11-20T14:09:11;4.68;;;2.08;;
43919;SDS011;29578;51.946;5.874;2022-11-20T14:11:45;2.58;;;1.42;;
43919;SDS011;29578;51.946;5.874;2022-11-20T14:14:13;4.43;;;1.83;;
43919;SDS011;29578;51.946;5.874;2022-11-20T14:16:42;4.82;;;1.88;;
43919;SDS011;29578;51.946;5.874;2022-11-20T14:19:21;3.25;;;1.88;;
43919;SDS011;29578;51.946;5.874;2022-11-20T14:21:52;3.65;;;1.83;;
43919;SDS011;29578;51.946;5.874;2022-11-20T14:24:30;3.95;;;2.03;;
43919;SDS011;29578;51.946;5.874;2022-11-20T14:26:56;5.13;;;2.35;;
43919;SDS011;29578;51.946;5.874;2022-11-20T14:29:23;3.88;;;1.67;;
43919;SDS011;29578;51.946;5.874;2022-11-20T14:31:54;1.95;;;1.40;;
43919;SDS011;29578;51.946;5.874;2022-11-20T14:34:22;3.15;;;1.55;;
43919;SDS011;29578;51.946;5.874;2022-11-20T14:36:52;4.10;;;1.90;;
43919;SDS011;29578;51.946;5.874;2022-11-20T14:39:25;3.45;;;1.98;;
43919;SDS011;29578;51.946;5.874;2022-11-20T14:41:59;4.50;;;2.17;;
43919;SDS011;29578;51.946;5.874;2022-11-20T14:44:29;2.25;;;1.33;;
43919;SDS011;29578;51.946;5.874;2022-11-20T14:46:58;4.15;;;2.10;;
43919;SDS011;29578;51.946;5.874;2022-11-20T14:49:26;2.42;;;1.67;;
43919;SDS011;29578;51.946;5.874;2022-11-20T14:51:59;3.45;;;1.67;;
43919;SDS011;29578;51.946;5.874;2022-11-20T14:54:26;3.67;;;1.80;;
43919;SDS011;29578;51.946;5.874;2022-11-20T14:56:54;4.03;;;2.20;;
43919;SDS011;29578;51.946;5.874;2022-11-20T14:59:23;3.80;;;1.90;;
43919;SDS011;29578;51.946;5.874;2022-11-20T15:01:56;3.58;;;1.73;;
43919;SDS011;29578;51.946;5.874;2022-11-20T15:04:27;4.05;;;2.03;;
43919;SDS011;29578;51.946;5.874;2022-11-20T15:06:54;4.60;;;2.15;;
43919;SDS011;29578;51.946;5.874;2022-11-20T15:09:21;3.83;;;1.75;;
43919;SDS011;29578;51.946;5.874;2022-11-20T15:11:52;4.20;;;2.22;;
43919;SDS011;29578;51.946;5.874;2022-11-20T15:14:21;2.95;;;1.65;;
43919;SDS011;29578;51.946;5.874;2022-11-20T15:16:48;3.38;;;1.63;;
43919;SDS011;29578;51.946;5.874;2022-11-20T15:19:17;3.25;;;1.63;;
43919;SDS011;29578;51.946;5.874;2022-11-20T15:21:45;3.50;;;1.70;;
43919;SDS011;29578;51.946;5.874;2022-11-20T15:24:11;4.32;;;2.20;;
43919;SDS011;29578;51.946;5.874;2022-11-20T15:26:37;3.45;;;1.98;;
43919;SDS011;29578;51.946;5.874;2022-11-20T15:29:06;4.03;;;2.15;;
43919;SDS011;29578;51.946;5.874;2022-11-20T15:31:35;3.15;;;1.50;;
43919;SDS011;29578;51.946;5.874;2022-11-20T15:34:02;3.78;;;2.05;;
43919;SDS011;29578;51.946;5.874;2022-11-20T15:36:31;3.33;;;1.83;;
43919;SDS011;29578;51.946;5.874;2022-11-20T15:38:57;3.85;;;2.03;;
43919;SDS011;29578;51.946;5.874;2022-11-20T15:41:22;2.72;;;1.60;;
43919;SDS011;29578;51.946;5.874;2022-11-20T15:43:48;4.35;;;2.28;;
43919;SDS011;29578;51.946;5.874;2022-11-20T15:46:15;3.97;;;2.10;;
43919;SDS011;29578;51.946;5.874;2022-11-20T15:48:45;3.45;;;1.70;;
43919;SDS011;29578;51.946;5.874;2022-11-20T15:51:21;3.20;;;1.85;;
43919;SDS011;29578;51.946;5.874;2022-11-20T15:53:51;4.70;;;2.10;;
43919;SDS011;29578;51.946;5.874;2022-11-20T15:56:17;4.50;;;1.98;;
43919;SDS011;29578;51.946;5.874;2022-11-20T15:58:42;4.30;;;2.05;;
43919;SDS011;29578;51.946;5.874;2022-11-20T16:01:12;3.15;;;1.60;;
43919;SDS011;29578;51.946;5.874;2022-11-20T16:03:40;3.38;;;1.67;;
43919;SDS011;29578;51.946;5.874;2022-11-20T16:06:07;4.75;;;2.17;;
43919;SDS011;29578;51.946;5.874;2022-11-20T16:08:33;3.33;;;1.60;;
43919;SDS011;29578;51.946;5.874;2022-11-20T16:10:59;4.65;;;2.10;;
43919;SDS011;29578;51.946;5.874;2022-11-20T16:13:24;3.88;;;2.00;;
43919;SDS011;29578;51.946;5.874;2022-11-20T16:16:07;4.70;;;2.25;;
43919;SDS011;29578;51.946;5.874;2022-11-20T16:18:44;5.18;;;2.45;;
43919;SDS011;29578;51.946;5.874;2022-11-20T16:21:11;4.63;;;2.17;;
43919;SDS011;29578;51.946;5.874;2022-11-20T16:23:38;3.67;;;1.70;;
43919;SDS011;29578;51.946;5.874;2022-11-20T16:26:12;2.83;;;1.70;;
43919;SDS011;29578;51.946;5.874;2022-11-20T16:28:38;2.42;;;1.63;;
43919;SDS011;29578;51.946;5.874;2022-11-20T16:31:12;3.45;;;1.92;;
43919;SDS011;29578;51.946;5.874;2022-11-20T16:33:41;3.80;;;1.58;;
43919;SDS011;29578;51.946;5.874;2022-11-20T16:36:10;3.67;;;1.77;;
43919;SDS011;29578;51.946;5.874;2022-11-20T16:38:38;3.65;;;1.92;;
43919;SDS011;29578;51.946;5.874;2022-11-20T16:41:03;3.10;;;1.60;;
43919;SDS011;29578;51.946;5.874;2022-11-20T16:43:30;4.13;;;2.33;;
43919;SDS011;29578;51.946;5.874;2022-11-20T16:45:55;3.88;;;1.90;;
43919;SDS011;29578;51.946;5.874;2022-11-20T16:48:21;4.25;;;2.22;;
43919;SDS011;29578;51.946;5.874;2022-11-20T16:50:48;4.18;;;1.83;;
43919;SDS011;29578;51.946;5.874;2022-11-20T16:53:15;3.95;;;1.95;;
43919;SDS011;29578;51.946;5.874;2022-11-20T16:55:42;3.65;;;1.65;;
43919;SDS011;29578;51.946;5.874;2022-11-20T16:58:07;2.75;;;1.50;;
43919;SDS011;29578;51.946;5.874;2022-11-20T17:00:35;2.78;;;1.60;;
43919;SDS011;29578;51.946;5.874;2022-11-20T17:03:02;2.75;;;1.52;;
43919;SDS011;29578;51.946;5.874;2022-11-20T17:05:29;3.75;;;1.77;;
43919;SDS011;29578;51.946;5.874;2022-11-20T17:07:55;3.92;;;1.75;;
43919;SDS011;29578;51.946;5.874;2022-11-20T17:10:20;2.67;;;1.63;;
43919;SDS011;29578;51.946;5.874;2022-11-20T17:12:46;8.55;;;3.67;;
43919;SDS011;29578;51.946;5.874;2022-11-20T17:15:12;8.10;;;4.15;;
43919;SDS011;29578;51.946;5.874;2022-11-20T17:17:37;5.97;;;2.80;;
43919;SDS011;29578;51.946;5.874;2022-11-20T17:20:03;5.93;;;2.95;;
43919;SDS011;29578;51.946;5.874;2022-11-20T17:22:30;6.13;;;2.95;;
43919;SDS011;29578;51.946;5.874;2022-11-20T17:24:56;4.07;;;2.17;;
43919;SDS011;29578;51.946;5.874;2022-11-20T17:27:22;5.03;;;2.40;;
43919;SDS011;29578;51.946;5.874;2022-11-20T17:29:47;4.78;;;2.30;;
43919;SDS011;29578;51.946;5.874;2022-11-20T17:32:13;4.70;;;2.72;;
43919;SDS011;29578;51.946;5.874;2022-11-20T17:34:39;5.00;;;2.63;;
43919;SDS011;29578;51.946;5.874;2022-11-20T17:37:04;4.57;;;2.20;;
43919;SDS011;29578;51.946;5.874;2022-11-20T17:39:31;4.72;;;2.70;;
43919;SDS011;29578;51.946;5.874;2022-11-20T17:41:56;4.90;;;2.38;;
43919;SDS011;29578;51.946;5.874;2022-11-20T17:44:33;4.13;;;2.20;;
43919;SDS011;29578;51.946;5.874;2022-11-20T17:46:59;4.00;;;2.10;;
43919;SDS011;29578;51.946;5.874;2022-11-20T17:49:24;3.55;;;1.75;;
43919;SDS011;29578;51.946;5.874;2022-11-20T17:51:50;2.90;;;1.73;;
43919;SDS011;29578;51.946;5.874;2022-11-20T17:54:16;3.80;;;1.90;;
43919;SDS011;29578;51.946;5.874;2022-11-20T17:56:41;3.75;;;1.80;;
43919;SDS011;29578;51.946;5.874;2022-11-20T17:59:24;5.47;;;2.17;;
43919;SDS011;29578;51.946;5.874;2022-11-20T18:01:50;3.95;;;1.85;;
43919;SDS011;29578;51.946;5.874;2022-11-20T18:04:15;3.50;;;1.85;;
43919;SDS011;29578;51.946;5.874;2022-11-20T18:06:41;3.42;;;1.80;;
43919;SDS011;29578;51.946;5.874;2022-11-20T18:09:07;3.25;;;1.70;;
43919;SDS011;29578;51.946;5.874;2022-11-20T18:11:35;4.72;;;2.28;;
43919;SDS011;29578;51.946;5.874;2022-11-20T18:14:03;4.78;;;2.17;;
43919;SDS011;29578;51.946;5.874;2022-11-20T18:16:46;3.95;;;1.90;;
43919;SDS011;29578;51.946;5.874;2022-11-20T18:19:16;3.58;;;1.70;;
43919;SDS011;29578;51.946;5.874;2022-11-20T18:21:43;4.15;;;2.03;;
43919;SDS011;29578;51.946;5.874;2022-11-20T18:24:09;4.90;;;2.08;;
43919;SDS011;29578;51.946;5.874;2022-11-20T18:26:35;4.32;;;2.22;;
43919;SDS011;29578;51.946;5.874;2022-11-20T18:29:01;4.68;;;2.45;;
43919;SDS011;29578;51.946;5.874;2022-11-20T18:31:27;4.57;;;1.98;;
43919;SDS011;29578;51.946;5.874;2022-11-20T18:33:53;3.50;;;1.83;;
43919;SDS011;29578;51.946;5.874;2022-11-20T18:36:21;3.72;;;2.03;;
43919;SDS011;29578;51.946;5.874;2022-11-20T18:38:50;4.82;;;2.22;;
43919;SDS011;29578;51.946;5.874;2022-11-20T18:41:17;3.67;;;1.83;;
43919;SDS011;29578;51.946;5.874;2022-11-20T18:43:57;3.13;;;1.63;;
43919;SDS011;29578;51.946;5.874;2022-11-20T18:46:37;4.65;;;2.22;;
43919;SDS011;29578;51.946;5.874;2022-11-20T18:49:02;5.13;;;1.80;;
43919;SDS011;29578;51.946;5.874;2022-11-20T18:51:28;3.20;;;1.52;;
43919;SDS011;29578;51.946;5.874;2022-11-20T18:53:54;2.67;;;1.73;;
43919;SDS011;29578;51.946;5.874;2022-11-20T18:56:19;2.60;;;1.63;;
43919;SDS011;29578;51.946;5.874;2022-11-20T18:58:45;3.28;;;1.70;;
43919;SDS011;29578;51.946;5.874;2022-11-20T19:01:11;3.50;;;1.80;;
43919;SDS011;29578;51.946;5.874;2022-11-20T19:03:36;2.88;;;1.50;;
43919;SDS011;29578;51.946;5.874;2022-11-20T19:06:02;4.47;;;1.80;;
43919;SDS011;29578;51.946;5.874;2022-11-20T19:08:28;3.00;;;1.67;;
43919;SDS011;29578;51.946;5.874;2022-11-20T19:10:53;4.07;;;1.80;;
43919;SDS011;29578;51.946;5.874;2022-11-20T19:13:19;3.45;;;1.83;;
43919;SDS011;29578;51.946;5.874;2022-11-20T19:15:44;3.13;;;1.42;;
43919;SDS011;29578;51.946;5.874;2022-11-20T19:18:10;2.33;;;1.48;;
43919;SDS011;29578;51.946;5.874;2022-11-20T19:20:36;4.32;;;2.20;;
43919;SDS011;29578;51.946;5.874;2022-11-20T19:23:01;2.78;;;1.33;;
43919;SDS011;29578;51.946;5.874;2022-11-20T19:25:29;2.67;;;1.60;;
43919;SDS011;29578;51.946;5.874;2022-11-20T19:27:55;1.85;;;1.23;;
43919;SDS011;29578;51.946;5.874;2022-11-20T19:30:21;3.67;;;1.70;;
43919;SDS011;29578;51.946;5.874;2022-11-20T19:32:46;2.67;;;1.35;;
43919;SDS011;29578;51.946;5.874;2022-11-20T19:35:12;2.97;;;1.60;;
43919;SDS011;29578;51.946;5.874;2022-11-20T19:37:37;4.57;;;1.80;;
43919;SDS011;29578;51.946;5.874;2022-11-20T19:40:03;2.17;;;1.40;;
43919;SDS011;29578;51.946;5.874;2022-11-20T19:42:29;2.38;;;1.40;;
43919;SDS011;29578;51.946;5.874;2022-11-20T19:44:55;2.60;;;1.38;;
43919;SDS011;29578;51.946;5.874;2022-11-20T19:47:22;2.22;;;1.23;;
43919;SDS011;29578;51.946;5.874;2022-11-20T19:49:48;2.17;;;1.38;;
43919;SDS011;29578;51.946;5.874;2022-11-20T19:52:14;2.60;;;1.60;;
43919;SDS011;29578;51.946;5.874;2022-11-20T19:54:39;3.28;;;1.63;;
43919;SDS011;29578;51.946;5.874;2022-11-20T19:57:05;4.07;;;2.20;;
43919;SDS011;29578;51.946;5.874;2022-11-20T19:59:30;3.65;;;1.65;;
43919;SDS011;29578;51.946;5.874;2022-11-20T20:01:56;3.42;;;1.70;;